sensor_id;sensor_type;location;lat;lon;timestamp;pressure;altitude;pressure_sealevel;temperature;humidity
19594;BME280;9944;48.240;16.478;2023-01-29T00:01:57;100824.03;;;-0.58;75.46
19594;BME280;9944;48.240;16.478;2023-01-29T00:06:04;100828.09;;;-0.63;75.63
19594;BME280;9944;48.240;16.478;2023-01-29T00:10:09;100828.88;;;-0.64;75.46
19594;BME280;9944;48.240;16.478;2023-01-29T00:14:12;100836.00;;;-0.60;75.74
19594;BME280;9944;48.240;16.478;2023-01-29T00:18:16;100841.19;;;-0.60;75.61
19594;BME280;9944;48.240;16.478;2023-01-29T00:22:19;100841.94;;;-0.62;75.65
19594;BME280;9944;48.240;16.478;2023-01-29T00:26:23;100849.81;;;-0.61;75.33
19594;BME280;9944;48.240;16.478;2023-01-29T00:30:26;100851.94;;;-0.69;75.05
19594;BME280;9944;48.240;16.478;2023-01-29T00:34:30;100850.84;;;-0.72;75.05
19594;BME280;9944;48.240;16.478;2023-01-29T00:38:34;100847.28;;;-0.74;75.24
19594;BME280;9944;48.240;16.478;2023-01-29T00:42:37;100851.69;;;-0.73;74.77
19594;BME280;9944;48.240;16.478;2023-01-29T00:46:57;100852.28;;;-0.77;74.92
19594;BME280;9944;48.240;16.478;2023-01-29T00:51:02;100856.50;;;-0.79;74.93
19594;BME280;9944;48.240;16.478;2023-01-29T00:55:07;100864.06;;;-0.82;75.12
19594;BME280;9944;48.240;16.478;2023-01-29T00:59:11;100850.13;;;-0.84;74.68
19594;BME280;9944;48.240;16.478;2023-01-29T01:03:15;100848.19;;;-0.89;74.49
19594;BME280;9944;48.240;16.478;2023-01-29T01:07:19;100862.66;;;-0.92;74.34
19594;BME280;9944;48.240;16.478;2023-01-29T01:11:24;100861.38;;;-0.99;74.62
19594;BME280;9944;48.240;16.478;2023-01-29T01:15:29;100863.88;;;-1.00;74.50
19594;BME280;9944;48.240;16.478;2023-01-29T01:19:32;100869.69;;;-1.04;73.97
19594;BME280;9944;48.240;16.478;2023-01-29T01:23:37;100859.94;;;-1.09;74.39
19594;BME280;9944;48.240;16.478;2023-01-29T01:27:40;100852.97;;;-1.10;74.01
19594;BME280;9944;48.240;16.478;2023-01-29T01:31:43;100855.47;;;-1.11;73.82
19594;BME280;9944;48.240;16.478;2023-01-29T01:35:46;100851.72;;;-1.16;73.59
19594;BME280;9944;48.240;16.478;2023-01-29T01:39:51;100858.66;;;-1.15;73.70
19594;BME280;9944;48.240;16.478;2023-01-29T01:44:00;100851.63;;;-1.18;73.39
19594;BME280;9944;48.240;16.478;2023-01-29T01:48:06;100839.66;;;-1.16;73.29
19594;BME280;9944;48.240;16.478;2023-01-29T01:52:14;100842.97;;;-1.18;73.01
19594;BME280;9944;48.240;16.478;2023-01-29T01:56:23;100854.75;;;-1.23;72.96
19594;BME280;9944;48.240;16.478;2023-01-29T02:00:29;100858.84;;;-1.27;72.77
19594;BME280;9944;48.240;16.478;2023-01-29T02:04:32;100858.66;;;-1.30;72.62
19594;BME280;9944;48.240;16.478;2023-01-29T02:08:56;100863.44;;;-1.36;72.46
19594;BME280;9944;48.240;16.478;2023-01-29T02:13:19;100872.91;;;-1.37;72.89
19594;BME280;9944;48.240;16.478;2023-01-29T02:17:23;100867.91;;;-1.34;72.74
19594;BME280;9944;48.240;16.478;2023-01-29T02:21:40;100880.47;;;-1.40;72.51
19594;BME280;9944;48.240;16.478;2023-01-29T02:26:03;100873.69;;;-1.38;72.61
19594;BME280;9944;48.240;16.478;2023-01-29T02:30:16;100875.31;;;-1.40;72.51
19594;BME280;9944;48.240;16.478;2023-01-29T02:34:32;100886.47;;;-1.41;72.84
19594;BME280;9944;48.240;16.478;2023-01-29T02:39:00;100875.00;;;-1.45;72.73
19594;BME280;9944;48.240;16.478;2023-01-29T02:43:18;100884.47;;;-1.45;72.45
19594;BME280;9944;48.240;16.478;2023-01-29T02:47:31;100882.72;;;-1.46;72.11
19594;BME280;9944;48.240;16.478;2023-01-29T02:51:40;100889.34;;;-1.50;72.57
19594;BME280;9944;48.240;16.478;2023-01-29T02:55:48;100892.03;;;-1.48;72.63
19594;BME280;9944;48.240;16.478;2023-01-29T02:59:56;100894.63;;;-1.48;71.85
19594;BME280;9944;48.240;16.478;2023-01-29T03:04:06;100905.50;;;-1.54;71.64
19594;BME280;9944;48.240;16.478;2023-01-29T03:08:19;100892.66;;;-1.52;71.21
19594;BME280;9944;48.240;16.478;2023-01-29T03:12:25;100899.34;;;-1.56;71.45
19594;BME280;9944;48.240;16.478;2023-01-29T03:16:39;100899.03;;;-1.60;71.37
19594;BME280;9944;48.240;16.478;2023-01-29T03:20:50;100900.66;;;-1.63;71.69
19594;BME280;9944;48.240;16.478;2023-01-29T03:24:57;100893.69;;;-1.64;71.80
19594;BME280;9944;48.240;16.478;2023-01-29T03:29:21;100904.13;;;-1.62;72.25
19594;BME280;9944;48.240;16.478;2023-01-29T03:33:45;100910.03;;;-1.65;71.77
19594;BME280;9944;48.240;16.478;2023-01-29T03:37:51;100896.19;;;-1.65;71.98
19594;BME280;9944;48.240;16.478;2023-01-29T03:42:03;100900.44;;;-1.66;71.21
19594;BME280;9944;48.240;16.478;2023-01-29T03:46:10;100894.38;;;-1.66;71.41
19594;BME280;9944;48.240;16.478;2023-01-29T03:50:32;100886.72;;;-1.65;71.06
19594;BME280;9944;48.240;16.478;2023-01-29T03:54:55;100878.75;;;-1.68;69.50
19594;BME280;9944;48.240;16.478;2023-01-29T03:59:13;100868.81;;;-1.75;70.23
19594;BME280;9944;48.240;16.478;2023-01-29T04:03:39;100867.03;;;-1.76;69.55
19594;BME280;9944;48.240;16.478;2023-01-29T04:07:47;100857.19;;;-1.82;69.45
19594;BME280;9944;48.240;16.478;2023-01-29T04:12:01;100860.50;;;-1.84;69.61
19594;BME280;9944;48.240;16.478;2023-01-29T04:16:11;100854.50;;;-1.83;69.60
19594;BME280;9944;48.240;16.478;2023-01-29T04:20:51;100852.72;;;-1.84;69.74
19594;BME280;9944;48.240;16.478;2023-01-29T04:24:55;100855.22;;;-1.86;69.31
19594;BME280;9944;48.240;16.478;2023-01-29T04:29:14;100848.94;;;-1.89;69.57
19594;BME280;9944;48.240;16.478;2023-01-29T04:33:32;100863.50;;;-1.91;69.70
19594;BME280;9944;48.240;16.478;2023-01-29T04:37:43;100851.34;;;-1.92;69.45
19594;BME280;9944;48.240;16.478;2023-01-29T04:41:51;100875.50;;;-1.92;69.41
19594;BME280;9944;48.240;16.478;2023-01-29T04:46:11;100873.72;;;-1.93;69.69
19594;BME280;9944;48.240;16.478;2023-01-29T04:50:18;100888.16;;;-1.96;69.52
19594;BME280;9944;48.240;16.478;2023-01-29T04:54:29;100897.59;;;-1.97;69.74
19594;BME280;9944;48.240;16.478;2023-01-29T04:58:38;100896.63;;;-1.99;70.02
19594;BME280;9944;48.240;16.478;2023-01-29T05:02:45;100903.50;;;-1.99;70.35
19594;BME280;9944;48.240;16.478;2023-01-29T05:06:49;100904.56;;;-1.96;70.10
19594;BME280;9944;48.240;16.478;2023-01-29T05:10:54;100903.69;;;-1.96;70.52
19594;BME280;9944;48.240;16.478;2023-01-29T05:15:01;100900.00;;;-2.00;70.08
19594;BME280;9944;48.240;16.478;2023-01-29T05:19:08;100893.13;;;-1.99;69.56
19594;BME280;9944;48.240;16.478;2023-01-29T05:23:15;100898.31;;;-1.99;69.40
19594;BME280;9944;48.240;16.478;2023-01-29T05:27:23;100881.91;;;-2.00;69.60
19594;BME280;9944;48.240;16.478;2023-01-29T05:31:47;100884.19;;;-2.05;68.98
19594;BME280;9944;48.240;16.478;2023-01-29T05:35:51;100890.25;;;-2.04;69.30
19594;BME280;9944;48.240;16.478;2023-01-29T05:39:56;100886.56;;;-2.08;68.72
19594;BME280;9944;48.240;16.478;2023-01-29T05:43:59;100894.22;;;-2.09;68.99
19594;BME280;9944;48.240;16.478;2023-01-29T05:48:02;100890.53;;;-2.13;68.81
19594;BME280;9944;48.240;16.478;2023-01-29T05:52:06;100890.34;;;-2.16;68.72
19594;BME280;9944;48.240;16.478;2023-01-29T05:56:09;100890.16;;;-2.19;68.42
19594;BME280;9944;48.240;16.478;2023-01-29T06:00:13;100882.97;;;-2.23;68.20
19594;BME280;9944;48.240;16.478;2023-01-29T06:04:17;100879.81;;;-2.32;67.93
19594;BME280;9944;48.240;16.478;2023-01-29T06:08:21;100885.38;;;-2.40;68.06
19594;BME280;9944;48.240;16.478;2023-01-29T06:12:25;100871.25;;;-2.45;68.08
19594;BME280;9944;48.240;16.478;2023-01-29T06:16:29;100869.44;;;-2.46;67.54
19594;BME280;9944;48.240;16.478;2023-01-29T06:20:32;100865.28;;;-2.57;67.74
19594;BME280;9944;48.240;16.478;2023-01-29T06:24:36;100879.47;;;-2.64;67.60
19594;BME280;9944;48.240;16.478;2023-01-29T06:28:40;100868.44;;;-2.74;67.80
19594;BME280;9944;48.240;16.478;2023-01-29T06:32:43;100877.72;;;-2.77;67.66
19594;BME280;9944;48.240;16.478;2023-01-29T06:36:46;100874.75;;;-2.83;68.36
19594;BME280;9944;48.240;16.478;2023-01-29T06:40:51;100883.88;;;-2.88;68.65
19594;BME280;9944;48.240;16.478;2023-01-29T06:44:54;100881.09;;;-2.91;68.37
19594;BME280;9944;48.240;16.478;2023-01-29T06:48:57;100888.63;;;-2.94;68.45
19594;BME280;9944;48.240;16.478;2023-01-29T06:53:01;100896.97;;;-2.98;68.67
19594;BME280;9944;48.240;16.478;2023-01-29T06:57:06;100889.81;;;-3.02;68.57
19594;BME280;9944;48.240;16.478;2023-01-29T07:01:10;100882.63;;;-3.06;68.49
19594;BME280;9944;48.240;16.478;2023-01-29T07:05:33;100877.47;;;-3.06;68.39
19594;BME280;9944;48.240;16.478;2023-01-29T07:09:37;100873.88;;;-3.08;68.42
19594;BME280;9944;48.240;16.478;2023-01-29T07:13:41;100873.66;;;-3.11;68.49
19594;BME280;9944;48.240;16.478;2023-01-29T07:17:54;100888.38;;;-3.10;68.36
19594;BME280;9944;48.240;16.478;2023-01-29T07:21:57;100879.63;;;-3.12;68.18
19594;BME280;9944;48.240;16.478;2023-01-29T07:26:04;100887.38;;;-3.12;68.68
19594;BME280;9944;48.240;16.478;2023-01-29T07:30:10;100889.16;;;-3.11;68.91
19594;BME280;9944;48.240;16.478;2023-01-29T07:34:13;100880.84;;;-3.07;68.83
19594;BME280;9944;48.240;16.478;2023-01-29T07:38:16;100876.13;;;-3.13;68.38
19594;BME280;9944;48.240;16.478;2023-01-29T07:42:19;100875.47;;;-3.10;68.83
19594;BME280;9944;48.240;16.478;2023-01-29T07:46:24;100873.88;;;-3.08;68.99
19594;BME280;9944;48.240;16.478;2023-01-29T07:50:27;100868.72;;;-3.08;68.48
19594;BME280;9944;48.240;16.478;2023-01-29T07:54:30;100871.63;;;-3.04;68.18
19594;BME280;9944;48.240;16.478;2023-01-29T07:58:33;100874.88;;;-3.06;67.95
19594;BME280;9944;48.240;16.478;2023-01-29T08:02:38;100889.59;;;-3.05;67.79
19594;BME280;9944;48.240;16.478;2023-01-29T08:06:42;100887.34;;;-3.01;67.70
19594;BME280;9944;48.240;16.478;2023-01-29T08:10:45;100893.38;;;-3.00;67.94
19594;BME280;9944;48.240;16.478;2023-01-29T08:14:48;100895.97;;;-3.00;67.89
19594;BME280;9944;48.240;16.478;2023-01-29T08:18:53;100900.97;;;-2.90;68.32
19594;BME280;9944;48.240;16.478;2023-01-29T08:23:00;100902.97;;;-2.86;67.90
19594;BME280;9944;48.240;16.478;2023-01-29T08:27:03;100894.63;;;-2.82;67.95
19594;BME280;9944;48.240;16.478;2023-01-29T08:31:12;100904.94;;;-2.82;67.41
19594;BME280;9944;48.240;16.478;2023-01-29T08:35:16;100919.28;;;-2.73;67.47
19594;BME280;9944;48.240;16.478;2023-01-29T08:39:20;100928.47;;;-2.65;67.35
19594;BME280;9944;48.240;16.478;2023-01-29T08:43:23;100930.44;;;-2.61;67.09
19594;BME280;9944;48.240;16.478;2023-01-29T08:47:26;100925.00;;;-2.52;67.38
19594;BME280;9944;48.240;16.478;2023-01-29T08:51:31;100928.41;;;-2.40;67.28
19594;BME280;9944;48.240;16.478;2023-01-29T08:55:35;100932.47;;;-2.44;66.02
19594;BME280;9944;48.240;16.478;2023-01-29T08:59:38;100936.56;;;-2.47;65.50
19594;BME280;9944;48.240;16.478;2023-01-29T09:03:41;100936.44;;;-2.49;65.88
19594;BME280;9944;48.240;16.478;2023-01-29T09:07:46;100940.25;;;-2.44;66.53
19594;BME280;9944;48.240;16.478;2023-01-29T09:11:49;100933.28;;;-2.31;66.41
19594;BME280;9944;48.240;16.478;2023-01-29T09:15:52;100940.59;;;-2.26;66.57
19594;BME280;9944;48.240;16.478;2023-01-29T09:19:57;100941.19;;;-2.16;66.78
19594;BME280;9944;48.240;16.478;2023-01-29T09:24:02;100940.69;;;-2.11;66.21
19594;BME280;9944;48.240;16.478;2023-01-29T09:28:05;100939.59;;;-2.14;66.01
19594;BME280;9944;48.240;16.478;2023-01-29T09:32:08;100950.66;;;-2.17;65.82
19594;BME280;9944;48.240;16.478;2023-01-29T09:36:11;100956.81;;;-2.15;65.98
19594;BME280;9944;48.240;16.478;2023-01-29T09:40:23;100948.25;;;-2.14;65.41
19594;BME280;9944;48.240;16.478;2023-01-29T09:44:46;100953.63;;;-2.11;64.33
19594;BME280;9944;48.240;16.478;2023-01-29T09:48:56;100952.25;;;-2.19;63.95
19594;BME280;9944;48.240;16.478;2023-01-29T09:53:11;100949.03;;;-2.15;64.35
19594;BME280;9944;48.240;16.478;2023-01-29T09:57:22;100943.66;;;-2.18;63.95
19594;BME280;9944;48.240;16.478;2023-01-29T10:01:31;100934.19;;;-2.17;64.91
19594;BME280;9944;48.240;16.478;2023-01-29T10:05:49;100931.94;;;-2.13;65.11
19594;BME280;9944;48.240;16.478;2023-01-29T10:10:05;100940.28;;;-2.04;65.47
19594;BME280;9944;48.240;16.478;2023-01-29T10:14:18;100937.50;;;-1.93;65.78
19594;BME280;9944;48.240;16.478;2023-01-29T10:18:36;100931.53;;;-1.92;64.99
19594;BME280;9944;48.240;16.478;2023-01-29T10:22:53;100938.22;;;-1.96;64.86
19594;BME280;9944;48.240;16.478;2023-01-29T10:27:01;100921.19;;;-1.92;65.02
19594;BME280;9944;48.240;16.478;2023-01-29T10:31:09;100910.84;;;-1.92;65.03
19594;BME280;9944;48.240;16.478;2023-01-29T10:35:21;100903.97;;;-1.92;65.12
19594;BME280;9944;48.240;16.478;2023-01-29T10:39:25;100901.59;;;-1.89;65.25
19594;BME280;9944;48.240;16.478;2023-01-29T10:43:35;100890.53;;;-1.86;64.62
19594;BME280;9944;48.240;16.478;2023-01-29T10:48:23;100885.19;;;-1.89;65.06
19594;BME280;9944;48.240;16.478;2023-01-29T10:52:43;100888.75;;;-1.87;64.95
19594;BME280;9944;48.240;16.478;2023-01-29T10:57:00;100885.34;;;-1.86;65.00
19594;BME280;9944;48.240;16.478;2023-01-29T11:01:07;100887.91;;;-1.73;65.64
19594;BME280;9944;48.240;16.478;2023-01-29T11:05:19;100878.56;;;-1.71;65.03
19594;BME280;9944;48.240;16.478;2023-01-29T11:09:28;100883.38;;;-1.77;64.44
19594;BME280;9944;48.240;16.478;2023-01-29T11:13:38;100872.03;;;-1.79;65.12
19594;BME280;9944;48.240;16.478;2023-01-29T11:18:00;100865.25;;;-1.77;65.15
19594;BME280;9944;48.240;16.478;2023-01-29T11:22:12;100853.50;;;-1.72;65.32
19594;BME280;9944;48.240;16.478;2023-01-29T11:26:18;100851.78;;;-1.71;64.92
19594;BME280;9944;48.240;16.478;2023-01-29T11:30:25;100836.78;;;-1.77;64.88
19594;BME280;9944;48.240;16.478;2023-01-29T11:34:29;100824.81;;;-1.75;65.04
19594;BME280;9944;48.240;16.478;2023-01-29T11:38:34;100825.59;;;-1.76;64.72
19594;BME280;9944;48.240;16.478;2023-01-29T11:42:37;100815.78;;;-1.82;64.31
19594;BME280;9944;48.240;16.478;2023-01-29T11:46:40;100806.16;;;-1.84;64.41
19594;BME280;9944;48.240;16.478;2023-01-29T11:50:50;100800.44;;;-1.78;64.95
19594;BME280;9944;48.240;16.478;2023-01-29T11:54:57;100792.88;;;-1.75;64.69
19594;BME280;9944;48.240;16.478;2023-01-29T11:59:03;100781.13;;;-1.70;64.84
19594;BME280;9944;48.240;16.478;2023-01-29T12:03:11;100766.38;;;-1.71;64.34
19594;BME280;9944;48.240;16.478;2023-01-29T12:07:17;100760.03;;;-1.76;64.35
19594;BME280;9944;48.240;16.478;2023-01-29T12:11:28;100748.34;;;-1.70;64.33
19594;BME280;9944;48.240;16.478;2023-01-29T12:15:32;100735.59;;;-1.67;64.15
19594;BME280;9944;48.240;16.478;2023-01-29T12:19:41;100738.19;;;-1.67;63.92
19594;BME280;9944;48.240;16.478;2023-01-29T12:23:52;100730.69;;;-1.62;63.87
19594;BME280;9944;48.240;16.478;2023-01-29T12:28:01;100735.38;;;-1.56;64.28
19594;BME280;9944;48.240;16.478;2023-01-29T12:32:13;100728.78;;;-1.51;63.33
19594;BME280;9944;48.240;16.478;2023-01-29T12:36:25;100721.78;;;-1.52;63.46
19594;BME280;9944;48.240;16.478;2023-01-29T12:40:40;100730.53;;;-1.50;63.74
19594;BME280;9944;48.240;16.478;2023-01-29T12:44:48;100725.19;;;-1.38;64.29
19594;BME280;9944;48.240;16.478;2023-01-29T12:48:54;100716.00;;;-1.33;63.50
19594;BME280;9944;48.240;16.478;2023-01-29T12:53:00;100711.81;;;-1.31;63.67
19594;BME280;9944;48.240;16.478;2023-01-29T12:57:09;100699.03;;;-1.28;63.48
19594;BME280;9944;48.240;16.478;2023-01-29T13:01:26;100688.59;;;-1.30;63.56
19594;BME280;9944;48.240;16.478;2023-01-29T13:05:36;100690.81;;;-1.36;62.75
19594;BME280;9944;48.240;16.478;2023-01-29T13:09:42;100684.03;;;-1.34;63.07
19594;BME280;9944;48.240;16.478;2023-01-29T13:13:51;100676.88;;;-1.38;63.38
19594;BME280;9944;48.240;16.478;2023-01-29T13:18:00;100672.59;;;-1.22;64.08
19594;BME280;9944;48.240;16.478;2023-01-29T13:22:15;100670.00;;;-1.22;63.51
19594;BME280;9944;48.240;16.478;2023-01-29T13:26:20;100673.41;;;-1.23;63.70
19594;BME280;9944;48.240;16.478;2023-01-29T13:30:28;100670.19;;;-1.19;64.25
19594;BME280;9944;48.240;16.478;2023-01-29T13:34:34;100663.22;;;-1.20;63.18
19594;BME280;9944;48.240;16.478;2023-01-29T13:38:41;100665.56;;;-1.25;63.64
19594;BME280;9944;48.240;16.478;2023-01-29T13:42:48;100661.25;;;-1.25;63.53
19594;BME280;9944;48.240;16.478;2023-01-29T13:46:56;100661.44;;;-1.21;63.98
19594;BME280;9944;48.240;16.478;2023-01-29T13:51:02;100658.84;;;-1.21;63.73
19594;BME280;9944;48.240;16.478;2023-01-29T13:55:17;100652.31;;;-1.30;63.05
19594;BME280;9944;48.240;16.478;2023-01-29T13:59:24;100659.31;;;-1.29;63.99
19594;BME280;9944;48.240;16.478;2023-01-29T14:03:52;100662.59;;;-1.31;63.82
19594;BME280;9944;48.240;16.478;2023-01-29T14:08:35;100657.50;;;-1.30;64.01
19594;BME280;9944;48.240;16.478;2023-01-29T14:12:41;100651.88;;;-1.22;64.59
19594;BME280;9944;48.240;16.478;2023-01-29T14:16:44;100648.41;;;-1.23;64.46
19594;BME280;9944;48.240;16.478;2023-01-29T14:20:56;100653.91;;;-1.17;64.25
19594;BME280;9944;48.240;16.478;2023-01-29T14:25:02;100653.91;;;-1.17;64.46
19594;BME280;9944;48.240;16.478;2023-01-29T14:29:16;100643.66;;;-1.15;63.98
19594;BME280;9944;48.240;16.478;2023-01-29T14:33:35;100644.28;;;-1.19;64.40
19594;BME280;9944;48.240;16.478;2023-01-29T14:37:46;100650.00;;;-1.25;64.13
19594;BME280;9944;48.240;16.478;2023-01-29T14:41:51;100654.13;;;-1.29;64.38
19594;BME280;9944;48.240;16.478;2023-01-29T14:50:50;100659.13;;;-1.32;64.82
19594;BME280;9944;48.240;16.478;2023-01-29T14:54:59;100653.22;;;-1.29;65.16
19594;BME280;9944;48.240;16.478;2023-01-29T14:59:14;100655.72;;;-1.31;65.23
19594;BME280;9944;48.240;16.478;2023-01-29T15:03:19;100660.00;;;-1.31;65.54
19594;BME280;9944;48.240;16.478;2023-01-29T15:07:32;100667.69;;;-1.33;65.77
19594;BME280;9944;48.240;16.478;2023-01-29T15:11:46;100667.69;;;-1.33;65.82
19594;BME280;9944;48.240;16.478;2023-01-29T15:15:52;100674.19;;;-1.39;65.94
19594;BME280;9944;48.240;16.478;2023-01-29T15:19:56;100681.91;;;-1.41;65.71
19594;BME280;9944;48.240;16.478;2023-01-29T15:24:03;100678.94;;;-1.47;65.79
19594;BME280;9944;48.240;16.478;2023-01-29T15:28:10;100672.88;;;-1.48;66.08
19594;BME280;9944;48.240;16.478;2023-01-29T15:32:17;100666.78;;;-1.48;66.25
19594;BME280;9944;48.240;16.478;2023-01-29T15:36:30;100672.16;;;-1.45;66.39
19594;BME280;9944;48.240;16.478;2023-01-29T15:40:33;100670.53;;;-1.43;66.55
19594;BME280;9944;48.240;16.478;2023-01-29T15:44:43;100670.44;;;-1.45;66.28
19594;BME280;9944;48.240;16.478;2023-01-29T15:48:47;100666.97;;;-1.45;66.23
19594;BME280;9944;48.240;16.478;2023-01-29T15:52:52;100665.19;;;-1.46;66.52
19594;BME280;9944;48.240;16.478;2023-01-29T15:56:56;100661.59;;;-1.48;66.46
19594;BME280;9944;48.240;16.478;2023-01-29T16:01:02;100662.34;;;-1.51;66.63
19594;BME280;9944;48.240;16.478;2023-01-29T16:05:10;100664.81;;;-1.52;66.38
19594;BME280;9944;48.240;16.478;2023-01-29T16:09:19;100662.25;;;-1.52;66.87
19594;BME280;9944;48.240;16.478;2023-01-29T16:13:26;100662.16;;;-1.54;67.01
19594;BME280;9944;48.240;16.478;2023-01-29T16:17:32;100663.84;;;-1.54;66.97
19594;BME280;9944;48.240;16.478;2023-01-29T16:21:39;100661.78;;;-1.45;67.60
19594;BME280;9944;48.240;16.478;2023-01-29T16:25:47;100663.78;;;-1.41;67.36
19594;BME280;9944;48.240;16.478;2023-01-29T16:29:51;100663.94;;;-1.38;67.25
19594;BME280;9944;48.240;16.478;2023-01-29T16:33:57;100674.28;;;-1.38;67.36
19594;BME280;9944;48.240;16.478;2023-01-29T16:38:05;100685.56;;;-1.37;67.49
19594;BME280;9944;48.240;16.478;2023-01-29T16:42:27;100676.09;;;-1.37;67.39
19594;BME280;9944;48.240;16.478;2023-01-29T16:46:32;100681.28;;;-1.37;67.53
19594;BME280;9944;48.240;16.478;2023-01-29T16:50:38;100686.88;;;-1.29;67.47
19594;BME280;9944;48.240;16.478;2023-01-29T16:55:16;100692.41;;;-1.38;66.82
19594;BME280;9944;48.240;16.478;2023-01-29T16:59:28;100690.19;;;-1.47;66.63
19594;BME280;9944;48.240;16.478;2023-01-29T17:03:35;100682.31;;;-1.48;66.85
19594;BME280;9944;48.240;16.478;2023-01-29T17:07:43;100680.56;;;-1.49;66.90
19594;BME280;9944;48.240;16.478;2023-01-29T17:11:52;100664.38;;;-1.45;66.99
19594;BME280;9944;48.240;16.478;2023-01-29T17:15:59;100666.38;;;-1.41;67.22
19594;BME280;9944;48.240;16.478;2023-01-29T17:20:11;100652.69;;;-1.38;67.39
19594;BME280;9944;48.240;16.478;2023-01-29T17:24:17;100655.56;;;-1.34;67.41
19594;BME280;9944;48.240;16.478;2023-01-29T17:28:20;100654.63;;;-1.34;67.24
19594;BME280;9944;48.240;16.478;2023-01-29T17:32:23;100649.75;;;-1.30;67.30
19594;BME280;9944;48.240;16.478;2023-01-29T17:36:48;100642.94;;;-1.28;67.33
19594;BME280;9944;48.240;16.478;2023-01-29T17:40:54;100648.13;;;-1.28;67.21
19594;BME280;9944;48.240;16.478;2023-01-29T17:44:58;100652.50;;;-1.27;67.40
19594;BME280;9944;48.240;16.478;2023-01-29T17:49:01;100645.81;;;-1.23;67.47
19594;BME280;9944;48.240;16.478;2023-01-29T17:53:05;100633.75;;;-1.22;67.08
19594;BME280;9944;48.240;16.478;2023-01-29T17:57:12;100626.78;;;-1.23;67.12
19594;BME280;9944;48.240;16.478;2023-01-29T18:01:16;100625.09;;;-1.23;67.29
19594;BME280;9944;48.240;16.478;2023-01-29T18:05:19;100619.91;;;-1.23;67.40
19594;BME280;9944;48.240;16.478;2023-01-29T18:09:22;100618.94;;;-1.25;67.23
19594;BME280;9944;48.240;16.478;2023-01-29T18:13:27;100611.97;;;-1.26;67.13
19594;BME280;9944;48.240;16.478;2023-01-29T18:17:30;100615.28;;;-1.29;66.88
19594;BME280;9944;48.240;16.478;2023-01-29T18:21:33;100621.25;;;-1.30;67.05
19594;BME280;9944;48.240;16.478;2023-01-29T18:25:37;100609.09;;;-1.31;67.11
19594;BME280;9944;48.240;16.478;2023-01-29T18:29:41;100600.34;;;-1.33;67.17
19594;BME280;9944;48.240;16.478;2023-01-29T18:33:44;100595.91;;;-1.35;67.26
19594;BME280;9944;48.240;16.478;2023-01-29T18:37:48;100596.59;;;-1.38;67.05
19594;BME280;9944;48.240;16.478;2023-01-29T18:41:52;100598.03;;;-1.43;67.34
19594;BME280;9944;48.240;16.478;2023-01-29T18:45:57;100596.09;;;-1.47;67.40
19594;BME280;9944;48.240;16.478;2023-01-29T18:50:00;100592.53;;;-1.49;67.44
19594;BME280;9944;48.240;16.478;2023-01-29T18:54:04;100597.53;;;-1.52;67.43
19594;BME280;9944;48.240;16.478;2023-01-29T18:58:07;100605.94;;;-1.56;67.66
19594;BME280;9944;48.240;16.478;2023-01-29T19:02:31;100597.97;;;-1.59;67.51
19594;BME280;9944;48.240;16.478;2023-01-29T19:06:35;100591.91;;;-1.60;67.66
19594;BME280;9944;48.240;16.478;2023-01-29T19:10:38;100577.06;;;-1.63;67.85
19594;BME280;9944;48.240;16.478;2023-01-29T19:14:42;100566.72;;;-1.63;67.85
19594;BME280;9944;48.240;16.478;2023-01-29T19:18:46;100557.97;;;-1.65;68.13
19594;BME280;9944;48.240;16.478;2023-01-29T19:22:49;100542.28;;;-1.68;68.10
19594;BME280;9944;48.240;16.478;2023-01-29T19:26:53;100536.13;;;-1.70;68.08
19594;BME280;9944;48.240;16.478;2023-01-29T19:30:56;100526.41;;;-1.74;67.93
19594;BME280;9944;48.240;16.478;2023-01-29T19:35:01;100532.38;;;-1.75;68.02
19594;BME280;9944;48.240;16.478;2023-01-29T19:39:04;100539.34;;;-1.74;68.08
19594;BME280;9944;48.240;16.478;2023-01-29T19:43:07;100529.59;;;-1.78;67.66
19594;BME280;9944;48.240;16.478;2023-01-29T19:47:10;100527.56;;;-1.84;67.91
19594;BME280;9944;48.240;16.478;2023-01-29T19:51:15;100526.50;;;-1.87;68.05
19594;BME280;9944;48.240;16.478;2023-01-29T19:55:18;100540.94;;;-1.91;67.92
19594;BME280;9944;48.240;16.478;2023-01-29T19:59:22;100535.59;;;-1.94;68.16
19594;BME280;9944;48.240;16.478;2023-01-29T20:03:26;100547.28;;;-2.01;67.91
19594;BME280;9944;48.240;16.478;2023-01-29T20:07:31;100547.53;;;-2.11;68.12
19594;BME280;9944;48.240;16.478;2023-01-29T20:11:34;100546.47;;;-2.14;68.32
19594;BME280;9944;48.240;16.478;2023-01-29T20:15:37;100551.44;;;-2.17;68.10
19594;BME280;9944;48.240;16.478;2023-01-29T20:19:40;100546.91;;;-2.22;68.37
19594;BME280;9944;48.240;16.478;2023-01-29T20:23:44;100546.09;;;-2.21;68.47
19594;BME280;9944;48.240;16.478;2023-01-29T20:27:48;100544.22;;;-2.23;68.28
19594;BME280;9944;48.240;16.478;2023-01-29T20:31:51;100549.28;;;-2.25;68.55
19594;BME280;9944;48.240;16.478;2023-01-29T20:35:54;100535.56;;;-2.24;68.49
19594;BME280;9944;48.240;16.478;2023-01-29T20:39:59;100534.50;;;-2.27;68.54
19594;BME280;9944;48.240;16.478;2023-01-29T20:44:02;100536.09;;;-2.29;68.47
19594;BME280;9944;48.240;16.478;2023-01-29T20:48:05;100535.91;;;-2.32;68.30
19594;BME280;9944;48.240;16.478;2023-01-29T20:52:09;100528.75;;;-2.36;68.25
19594;BME280;9944;48.240;16.478;2023-01-29T20:56:15;100527.69;;;-2.40;68.30
19594;BME280;9944;48.240;16.478;2023-01-29T21:00:25;100528.22;;;-2.46;68.24
19594;BME280;9944;48.240;16.478;2023-01-29T21:04:28;100527.03;;;-2.51;68.58
19594;BME280;9944;48.240;16.478;2023-01-29T21:08:31;100536.59;;;-2.50;68.82
19594;BME280;9944;48.240;16.478;2023-01-29T21:12:37;100524.28;;;-2.54;68.72
19594;BME280;9944;48.240;16.478;2023-01-29T21:16:40;100525.88;;;-2.56;68.57
19594;BME280;9944;48.240;16.478;2023-01-29T21:20:43;100518.75;;;-2.60;68.59
19594;BME280;9944;48.240;16.478;2023-01-29T21:24:46;100526.22;;;-2.65;68.66
19594;BME280;9944;48.240;16.478;2023-01-29T21:28:51;100525.13;;;-2.68;68.67
19594;BME280;9944;48.240;16.478;2023-01-29T21:32:54;100523.97;;;-2.73;68.86
19594;BME280;9944;48.240;16.478;2023-01-29T21:36:57;100511.75;;;-2.76;69.03
19594;BME280;9944;48.240;16.478;2023-01-29T21:41:02;100521.13;;;-2.78;68.93